Oak Lawn, IL (60453)

10:40 CDT le 26 mai 2015 (GMT -0500)
Oak Lawn - 48th Court | | Change Station
CLOSE
Current Station
Stations météorologiques personnelles
Location: Oak Lawn, IL
Altitude: 623 ft
Stations météo à proximité

Alt. 623 ft 41.72 °N, 87.74 °W | Updated 31 seconds ago

Couvert
Couvert
72.7 ° F
Paraît 73 ° F
N
5.3
Vent Variable Vent de ENE
Gusts 9.9 mph

Aujourd'hui
Haut(e) -- | Bas -- ° F
--% Risque de précip.
Hier
Haut(e) -- | Bas -- ° F
Precip. -- pouce
5:22 AM 8:14 PM
Premier quartier, 59% visible
Pression 29.86 pouce
Visibilité 10.0 Miles terrestres
Nuages Nuageux 1800 ft
Couvert 2500 ft
indice de chaleur 73 ° F
Point de rosée 66 ° F
Humidité 80%
Précipitations 0.00 pouce
Profondeur de la couche neigeuse Non disponible.
UV 2 sur 12
Pollen 7.20 sur 12
Qualité de l'air Non disponible.
Flu Activity Sporadic
METAR KMDW 261453Z 15007KT 10SM BKN018 OVC025 23/19 A2988 RMK AO2 SLP109 T02330189 58023

More Conditions Fewer Conditions

Pression 29.86 pouce
Visibilité 10.0 Miles terrestres
Nuages Nuageux 1800 ft
Couvert 2500 ft
indice de chaleur 73 ° F
Point de rosée 66 ° F
Humidité 80%
Précipitations 0.00 pouce
Profondeur de la couche neigeuse Non disponible.
UV 2 sur 12
Pollen 7.20 sur 12
Qualité de l'air Non disponible.
Flu Activity Sporadic
METAR KMDW 261453Z 15007KT 10SM BKN018 OVC025 23/19 A2988 RMK AO2 SLP109 T02330189 58023

More Conditions Fewer Conditions

10-Day Weather Forecast

Almanac

Astronomie

May. 26, 2015 Lever Coucher
Temps réel
Crépuscule civil
Crépuscule nautique
Crépuscule astronomique
Lune
Durée de lumière visible
Longueur du jour
Tomorrow will be .
, % of the Moon is Illuminated

Extrêmes aujourd'hui

State Highs State Lows

Community

WunderPhotos

Upload Photos

1,824,362 Photos téléchargées !

WunderBlogs® & News

Nearby

Qualité de l'air

  Qualité de l'air Indice de la qualité de l'air Polluant
Not available.

Épaisseur de neige

Station Depth Altitude

Activité sismique

Ville Distance Mag. Time & Date
Minimum magnitude displayed is 2.5.

Températures des eaux côtières

Lieu Température

Stations

Stations météo à proximité

Emplacement de la station Température Refroidissement éolien Point de rosée Humidité Vent Precip. Alt. Mise à jour Type